Alpine, Colorado
Current Conditions -  °F | °C
As of 11:50 PM on Wednesday 22 Oct 2014 (Local Time) from KRCV Reporting Station
Clear Clear  
Wind Chill: 39°   Ceiling: Unl
Heat Index: 43°   Visibility: 10mi
Dew Point: 33°   Wind: 6mph
Humidity: 68%   Direction: 260°W
Pressure: 30.32"   Gusts: NA
Location:  37.6617°N, 106.617°W
Report Text: KRCV 230550Z AUTO 26005KT 10SM CLR 06/00 A3032 RMK AO2 T00600004 10132 20056
Loading
Personal Weather Stations






























Interactive Weather Map
Tropical Storm Tracking
New forecast layout! Learn more

10-Day Weather Forecast

Advertisements
Track Severe Weather on mobile